sensor_id;sensor_type;location;lat;lon;timestamp;temperature;humidity
9865;DHT22;4971;52.398;9.774;2023-03-23T00:01:27;13.10;99.90
9865;DHT22;4971;52.398;9.774;2023-03-23T00:03:56;12.80;1.00
9865;DHT22;4971;52.398;9.774;2023-03-23T00:06:26;12.90;1.00
9865;DHT22;4971;52.398;9.774;2023-03-23T00:08:54;12.70;99.90
9865;DHT22;4971;52.398;9.774;2023-03-23T00:11:26;12.50;1.00
9865;DHT22;4971;52.398;9.774;2023-03-23T00:13:55;12.30;99.90
9865;DHT22;4971;52.398;9.774;2023-03-23T00:16:26;12.00;1.00
9865;DHT22;4971;52.398;9.774;2023-03-23T00:19:00;12.30;1.00
9865;DHT22;4971;52.398;9.774;2023-03-23T00:21:28;12.20;1.00
9865;DHT22;4971;52.398;9.774;2023-03-23T00:24:05;12.10;1.00
9865;DHT22;4971;52.398;9.774;2023-03-23T00:34:05;11.80;1.00
9865;DHT22;4971;52.398;9.774;2023-03-23T00:36:33;11.90;99.90
9865;DHT22;4971;52.398;9.774;2023-03-23T00:39:01;11.80;99.90
9865;DHT22;4971;52.398;9.774;2023-03-23T00:43:57;11.80;1.00
9865;DHT22;4971;52.398;9.774;2023-03-23T00:48:51;11.60;1.00
9865;DHT22;4971;52.398;9.774;2023-03-23T00:51:18;11.80;1.00
9865;DHT22;4971;52.398;9.774;2023-03-23T00:53:44;11.80;1.00
9865;DHT22;4971;52.398;9.774;2023-03-23T00:56:13;11.80;1.00
9865;DHT22;4971;52.398;9.774;2023-03-23T00:58:40;11.70;99.90
9865;DHT22;4971;52.398;9.774;2023-03-23T01:03:32;11.70;1.00
9865;DHT22;4971;52.398;9.774;2023-03-23T01:06:05;11.70;99.90
9865;DHT22;4971;52.398;9.774;2023-03-23T01:13:33;11.70;1.00
9865;DHT22;4971;52.398;9.774;2023-03-23T01:15:59;11.60;99.90
9865;DHT22;4971;52.398;9.774;2023-03-23T01:20:53;11.90;1.00
9865;DHT22;4971;52.398;9.774;2023-03-23T01:23:22;11.80;1.00
9865;DHT22;4971;52.398;9.774;2023-03-23T01:25:47;11.90;99.90
9865;DHT22;4971;52.398;9.774;2023-03-23T01:30:48;11.80;12.40
9865;DHT22;4971;52.398;9.774;2023-03-23T01:40:32;11.80;1.00
9865;DHT22;4971;52.398;9.774;2023-03-23T01:42:58;12.00;1.00
9865;DHT22;4971;52.398;9.774;2023-03-23T01:45:29;11.70;99.90
9865;DHT22;4971;52.398;9.774;2023-03-23T01:48:00;12.40;99.90
9865;DHT22;4971;52.398;9.774;2023-03-23T01:50:28;11.80;33.20
9865;DHT22;4971;52.398;9.774;2023-03-23T01:52:57;11.80;34.60
9865;DHT22;4971;52.398;9.774;2023-03-23T01:55:24;11.70;1.00
9865;DHT22;4971;52.398;9.774;2023-03-23T01:57:52;11.60;99.90
9865;DHT22;4971;52.398;9.774;2023-03-23T02:00:19;11.90;1.00
9865;DHT22;4971;52.398;9.774;2023-03-23T02:02:48;11.80;1.00
9865;DHT22;4971;52.398;9.774;2023-03-23T02:05:24;11.70;30.50
9865;DHT22;4971;52.398;9.774;2023-03-23T02:07:58;11.80;1.00
9865;DHT22;4971;52.398;9.774;2023-03-23T02:15:20;11.60;61.80
9865;DHT22;4971;52.398;9.774;2023-03-23T02:20:44;12.10;99.90
9865;DHT22;4971;52.398;9.774;2023-03-23T02:28:52;11.90;1.00
9865;DHT22;4971;52.398;9.774;2023-03-23T02:34:27;11.70;99.90
9865;DHT22;4971;52.398;9.774;2023-03-23T02:40:07;11.90;1.00
9865;DHT22;4971;52.398;9.774;2023-03-23T02:42:40;11.90;1.00
9865;DHT22;4971;52.398;9.774;2023-03-23T02:45:10;12.00;1.00
9865;DHT22;4971;52.398;9.774;2023-03-23T02:47:37;11.90;1.00
9865;DHT22;4971;52.398;9.774;2023-03-23T02:50:06;11.80;1.00
9865;DHT22;4971;52.398;9.774;2023-03-23T02:52:34;11.80;1.00
9865;DHT22;4971;52.398;9.774;2023-03-23T02:55:02;11.80;1.00
9865;DHT22;4971;52.398;9.774;2023-03-23T02:57:28;11.80;1.00
9865;DHT22;4971;52.398;9.774;2023-03-23T02:59:55;11.80;22.10
9865;DHT22;4971;52.398;9.774;2023-03-23T03:02:25;11.90;99.90
9865;DHT22;4971;52.398;9.774;2023-03-23T03:08:07;11.80;1.00
9865;DHT22;4971;52.398;9.774;2023-03-23T03:10:52;11.90;99.90
9865;DHT22;4971;52.398;9.774;2023-03-23T03:19:02;11.80;99.90
9865;DHT22;4971;52.398;9.774;2023-03-23T03:21:31;11.80;1.00
9865;DHT22;4971;52.398;9.774;2023-03-23T03:24:01;11.70;1.00
9865;DHT22;4971;52.398;9.774;2023-03-23T03:26:30;11.80;1.00
9865;DHT22;4971;52.398;9.774;2023-03-23T03:28:57;11.60;1.00
9865;DHT22;4971;52.398;9.774;2023-03-23T03:31:43;11.50;99.90
9865;DHT22;4971;52.398;9.774;2023-03-23T03:34:13;11.70;99.90
9865;DHT22;4971;52.398;9.774;2023-03-23T03:36:44;11.70;99.90
9865;DHT22;4971;52.398;9.774;2023-03-23T03:39:16;12.20;99.90
9865;DHT22;4971;52.398;9.774;2023-03-23T03:41:43;11.40;99.90
9865;DHT22;4971;52.398;9.774;2023-03-23T03:44:09;11.50;99.90
9865;DHT22;4971;52.398;9.774;2023-03-23T03:46:36;11.50;24.40
9865;DHT22;4971;52.398;9.774;2023-03-23T03:49:05;11.50;59.60
9865;DHT22;4971;52.398;9.774;2023-03-23T03:51:32;11.40;1.00
9865;DHT22;4971;52.398;9.774;2023-03-23T03:53:58;11.70;1.00
9865;DHT22;4971;52.398;9.774;2023-03-23T03:58:52;11.60;99.90
9865;DHT22;4971;52.398;9.774;2023-03-23T04:01:20;11.60;99.90
9865;DHT22;4971;52.398;9.774;2023-03-23T04:06:16;11.80;99.90
9865;DHT22;4971;52.398;9.774;2023-03-23T04:08:45;11.70;99.90
9865;DHT22;4971;52.398;9.774;2023-03-23T04:11:12;12.10;1.00
9865;DHT22;4971;52.398;9.774;2023-03-23T04:13:42;11.70;1.00
9865;DHT22;4971;52.398;9.774;2023-03-23T04:16:08;11.60;99.90
9865;DHT22;4971;52.398;9.774;2023-03-23T04:21:05;11.90;99.90
9865;DHT22;4971;52.398;9.774;2023-03-23T04:23:33;11.60;99.90
9865;DHT22;4971;52.398;9.774;2023-03-23T04:26:00;11.90;1.00
9865;DHT22;4971;52.398;9.774;2023-03-23T04:28:26;12.10;99.90
9865;DHT22;4971;52.398;9.774;2023-03-23T04:30:53;11.70;50.70
9865;DHT22;4971;52.398;9.774;2023-03-23T04:33:23;11.80;1.00
9865;DHT22;4971;52.398;9.774;2023-03-23T04:35:51;11.70;1.00
9865;DHT22;4971;52.398;9.774;2023-03-23T04:38:17;11.90;1.00
9865;DHT22;4971;52.398;9.774;2023-03-23T04:40:46;11.80;99.90
9865;DHT22;4971;52.398;9.774;2023-03-23T04:43:12;11.70;99.90
9865;DHT22;4971;52.398;9.774;2023-03-23T04:45:40;11.70;89.60
9865;DHT22;4971;52.398;9.774;2023-03-23T04:48:11;11.80;1.00
9865;DHT22;4971;52.398;9.774;2023-03-23T04:50:37;11.90;82.70
9865;DHT22;4971;52.398;9.774;2023-03-23T04:53:04;11.90;18.80
9865;DHT22;4971;52.398;9.774;2023-03-23T04:55:34;11.70;99.90
9865;DHT22;4971;52.398;9.774;2023-03-23T04:58:04;11.80;1.00
9865;DHT22;4971;52.398;9.774;2023-03-23T05:00:31;11.70;1.00
9865;DHT22;4971;52.398;9.774;2023-03-23T05:05:24;11.70;1.00
9865;DHT22;4971;52.398;9.774;2023-03-23T05:12:43;11.60;99.90
9865;DHT22;4971;52.398;9.774;2023-03-23T05:15:11;11.60;1.00
9865;DHT22;4971;52.398;9.774;2023-03-23T05:17:36;11.60;1.00
9865;DHT22;4971;52.398;9.774;2023-03-23T05:20:04;11.60;99.90
9865;DHT22;4971;52.398;9.774;2023-03-23T05:27:24;11.70;1.00
9865;DHT22;4971;52.398;9.774;2023-03-23T05:29:53;11.70;99.90
9865;DHT22;4971;52.398;9.774;2023-03-23T05:32:19;11.50;99.90
9865;DHT22;4971;52.398;9.774;2023-03-23T05:34:45;11.50;99.90
9865;DHT22;4971;52.398;9.774;2023-03-23T05:37:14;12.40;99.90
9865;DHT22;4971;52.398;9.774;2023-03-23T05:42:06;11.70;1.00
9865;DHT22;4971;52.398;9.774;2023-03-23T05:44:33;11.80;99.90
9865;DHT22;4971;52.398;9.774;2023-03-23T05:56:46;11.80;99.90
9865;DHT22;4971;52.398;9.774;2023-03-23T05:59:14;11.70;99.90
9865;DHT22;4971;52.398;9.774;2023-03-23T06:04:06;11.60;99.90
9865;DHT22;4971;52.398;9.774;2023-03-23T06:06:32;11.70;99.90
9865;DHT22;4971;52.398;9.774;2023-03-23T06:08:58;11.70;99.90
9865;DHT22;4971;52.398;9.774;2023-03-23T06:11:25;11.70;1.00
9865;DHT22;4971;52.398;9.774;2023-03-23T06:16:18;11.80;1.00
9865;DHT22;4971;52.398;9.774;2023-03-23T06:21:11;11.80;99.90
9865;DHT22;4971;52.398;9.774;2023-03-23T06:23:38;11.80;99.90
9865;DHT22;4971;52.398;9.774;2023-03-23T06:26:06;11.80;7.20
9865;DHT22;4971;52.398;9.774;2023-03-23T06:28:36;11.90;99.90
9865;DHT22;4971;52.398;9.774;2023-03-23T06:31:05;12.00;1.00
9865;DHT22;4971;52.398;9.774;2023-03-23T06:33:38;12.10;99.90
9865;DHT22;4971;52.398;9.774;2023-03-23T06:40:58;11.60;1.00
9865;DHT22;4971;52.398;9.774;2023-03-23T06:43:24;12.50;5.10
9865;DHT22;4971;52.398;9.774;2023-03-23T06:45:50;12.50;99.90
9865;DHT22;4971;52.398;9.774;2023-03-23T06:50:43;16.00;99.90
9865;DHT22;4971;52.398;9.774;2023-03-23T06:53:10;12.40;13.70
9865;DHT22;4971;52.398;9.774;2023-03-23T06:55:36;12.60;99.90
9865;DHT22;4971;52.398;9.774;2023-03-23T07:00:29;12.50;1.00
9865;DHT22;4971;52.398;9.774;2023-03-23T07:10:16;12.40;51.20
9865;DHT22;4971;52.398;9.774;2023-03-23T07:15:08;12.50;1.00
9865;DHT22;4971;52.398;9.774;2023-03-23T07:17:36;12.50;1.00
9865;DHT22;4971;52.398;9.774;2023-03-23T07:20:03;12.40;75.10
9865;DHT22;4971;52.398;9.774;2023-03-23T07:24:54;12.60;98.00
9865;DHT22;4971;52.398;9.774;2023-03-23T07:27:20;12.80;1.00
9865;DHT22;4971;52.398;9.774;2023-03-23T07:39:31;12.90;99.90
9865;DHT22;4971;52.398;9.774;2023-03-23T07:41:58;13.10;99.90
9865;DHT22;4971;52.398;9.774;2023-03-23T07:44:24;13.50;1.00
9865;DHT22;4971;52.398;9.774;2023-03-23T07:49:17;13.20;99.90
9865;DHT22;4971;52.398;9.774;2023-03-23T07:51:44;13.10;99.90
9865;DHT22;4971;52.398;9.774;2023-03-23T07:54:13;13.30;38.00
9865;DHT22;4971;52.398;9.774;2023-03-23T07:56:42;13.40;1.00
9865;DHT22;4971;52.398;9.774;2023-03-23T07:59:10;14.10;99.90
9865;DHT22;4971;52.398;9.774;2023-03-23T08:01:39;13.40;99.90
9865;DHT22;4971;52.398;9.774;2023-03-23T08:04:08;13.40;99.90
9865;DHT22;4971;52.398;9.774;2023-03-23T08:06:34;13.60;1.00
9865;DHT22;4971;52.398;9.774;2023-03-23T08:09:01;13.70;99.90
9865;DHT22;4971;52.398;9.774;2023-03-23T08:11:28;14.00;1.00
9865;DHT22;4971;52.398;9.774;2023-03-23T08:16:21;14.80;87.60
9865;DHT22;4971;52.398;9.774;2023-03-23T08:23:39;14.30;1.00
9865;DHT22;4971;52.398;9.774;2023-03-23T08:26:06;14.90;1.00
9865;DHT22;4971;52.398;9.774;2023-03-23T08:28:35;14.90;1.00
9865;DHT22;4971;52.398;9.774;2023-03-23T08:31:07;14.70;99.90
9865;DHT22;4971;52.398;9.774;2023-03-23T08:36:00;14.50;99.90
9865;DHT22;4971;52.398;9.774;2023-03-23T08:38:26;14.70;1.00
9865;DHT22;4971;52.398;9.774;2023-03-23T08:40:58;14.30;99.90
9865;DHT22;4971;52.398;9.774;2023-03-23T08:45:50;14.30;1.00
9865;DHT22;4971;52.398;9.774;2023-03-23T08:50:43;14.20;99.90
9865;DHT22;4971;52.398;9.774;2023-03-23T08:55:35;14.30;1.00
9865;DHT22;4971;52.398;9.774;2023-03-23T08:58:01;14.10;1.00
9865;DHT22;4971;52.398;9.774;2023-03-23T09:00:29;14.20;1.00
9865;DHT22;4971;52.398;9.774;2023-03-23T09:05:27;14.20;99.90
9865;DHT22;4971;52.398;9.774;2023-03-23T09:07:55;14.20;99.90
9865;DHT22;4971;52.398;9.774;2023-03-23T09:12:52;14.10;1.00
9865;DHT22;4971;52.398;9.774;2023-03-23T09:15:18;14.00;1.00
9865;DHT22;4971;52.398;9.774;2023-03-23T09:17:49;14.00;1.00
9865;DHT22;4971;52.398;9.774;2023-03-23T09:20:22;13.70;1.00
9865;DHT22;4971;52.398;9.774;2023-03-23T09:22:53;13.80;1.00
9865;DHT22;4971;52.398;9.774;2023-03-23T09:25:24;13.80;1.00
9865;DHT22;4971;52.398;9.774;2023-03-23T09:27:59;13.90;1.00
9865;DHT22;4971;52.398;9.774;2023-03-23T09:30:27;13.80;1.00
9865;DHT22;4971;52.398;9.774;2023-03-23T09:32:54;13.70;1.00
9865;DHT22;4971;52.398;9.774;2023-03-23T09:35:23;13.90;1.00
9865;DHT22;4971;52.398;9.774;2023-03-23T09:37:50;13.90;1.00
9865;DHT22;4971;52.398;9.774;2023-03-23T09:40:20;14.00;1.00
9865;DHT22;4971;52.398;9.774;2023-03-23T09:45:51;13.90;1.00
9865;DHT22;4971;52.398;9.774;2023-03-23T09:51:54;13.90;1.00
9865;DHT22;4971;52.398;9.774;2023-03-23T09:54:30;13.90;1.00
9865;DHT22;4971;52.398;9.774;2023-03-23T09:56:58;13.80;1.00
9865;DHT22;4971;52.398;9.774;2023-03-23T10:02:04;13.90;1.00
9865;DHT22;4971;52.398;9.774;2023-03-23T10:04:47;13.90;1.00
9865;DHT22;4971;52.398;9.774;2023-03-23T10:07:22;14.00;1.00
9865;DHT22;4971;52.398;9.774;2023-03-23T10:09:55;13.90;1.00
9865;DHT22;4971;52.398;9.774;2023-03-23T10:12:36;13.90;99.90
9865;DHT22;4971;52.398;9.774;2023-03-23T10:22:45;13.70;1.00
9865;DHT22;4971;52.398;9.774;2023-03-23T10:33:02;14.50;99.90
9865;DHT22;4971;52.398;9.774;2023-03-23T10:35:33;14.30;99.90
9865;DHT22;4971;52.398;9.774;2023-03-23T10:38:09;14.30;99.90
9865;DHT22;4971;52.398;9.774;2023-03-23T10:40:45;14.40;99.90
9865;DHT22;4971;52.398;9.774;2023-03-23T10:45:40;14.50;99.90
9865;DHT22;4971;52.398;9.774;2023-03-23T10:48:30;14.70;99.90
9865;DHT22;4971;52.398;9.774;2023-03-23T10:51:00;14.80;1.00
9865;DHT22;4971;52.398;9.774;2023-03-23T10:55:53;14.90;99.90
9865;DHT22;4971;52.398;9.774;2023-03-23T10:58:38;15.30;99.90
9865;DHT22;4971;52.398;9.774;2023-03-23T11:01:05;15.80;99.90
9865;DHT22;4971;52.398;9.774;2023-03-23T11:03:47;16.10;99.90
9865;DHT22;4971;52.398;9.774;2023-03-23T11:08:58;16.20;99.90
9865;DHT22;4971;52.398;9.774;2023-03-23T11:11:32;16.70;99.90
9865;DHT22;4971;52.398;9.774;2023-03-23T11:16:44;16.40;1.00
9865;DHT22;4971;52.398;9.774;2023-03-23T11:19:15;16.50;99.90
9865;DHT22;4971;52.398;9.774;2023-03-23T11:21:47;16.30;99.90
9865;DHT22;4971;52.398;9.774;2023-03-23T11:26:43;16.30;99.90
9865;DHT22;4971;52.398;9.774;2023-03-23T11:29:18;16.40;99.90
9865;DHT22;4971;52.398;9.774;2023-03-23T11:37:07;16.10;99.90
9865;DHT22;4971;52.398;9.774;2023-03-23T11:40:28;16.00;99.90
9865;DHT22;4971;52.398;9.774;2023-03-23T11:42:47;15.90;99.90
9865;DHT22;4971;52.398;9.774;2023-03-23T11:53:22;15.60;1.00
9865;DHT22;4971;52.398;9.774;2023-03-23T11:55:57;15.60;99.90
9865;DHT22;4971;52.398;9.774;2023-03-23T11:58:26;15.40;99.90
9865;DHT22;4971;52.398;9.774;2023-03-23T12:01:09;15.40;99.90
9865;DHT22;4971;52.398;9.774;2023-03-23T12:03:51;15.20;1.00
9865;DHT22;4971;52.398;9.774;2023-03-23T12:06:50;15.70;99.90
9865;DHT22;4971;52.398;9.774;2023-03-23T12:09:30;14.80;99.90
9865;DHT22;4971;52.398;9.774;2023-03-23T12:12:12;14.50;99.90
9865;DHT22;4971;52.398;9.774;2023-03-23T12:17:27;12.90;1.00
9865;DHT22;4971;52.398;9.774;2023-03-23T12:25:42;12.10;1.00
9865;DHT22;4971;52.398;9.774;2023-03-23T12:28:21;12.00;1.00
9865;DHT22;4971;52.398;9.774;2023-03-23T12:41:26;11.80;99.90
9865;DHT22;4971;52.398;9.774;2023-03-23T12:43:59;11.90;99.90
9865;DHT22;4971;52.398;9.774;2023-03-23T12:57:04;11.90;1.00
9865;DHT22;4971;52.398;9.774;2023-03-23T12:59:59;12.00;99.90
9865;DHT22;4971;52.398;9.774;2023-03-23T13:02:33;12.10;1.00
9865;DHT22;4971;52.398;9.774;2023-03-23T13:07:56;12.10;1.00
9865;DHT22;4971;52.398;9.774;2023-03-23T13:10:32;9.40;1.00
9865;DHT22;4971;52.398;9.774;2023-03-23T13:12:59;11.80;67.40
9865;DHT22;4971;52.398;9.774;2023-03-23T13:21:05;12.20;99.90
9865;DHT22;4971;52.398;9.774;2023-03-23T13:23:52;12.30;99.90
9865;DHT22;4971;52.398;9.774;2023-03-23T13:26:21;12.20;1.00
9865;DHT22;4971;52.398;9.774;2023-03-23T13:28:54;12.30;1.00
9865;DHT22;4971;52.398;9.774;2023-03-23T13:36:38;12.30;99.90
9865;DHT22;4971;52.398;9.774;2023-03-23T13:39:07;12.30;99.90
9865;DHT22;4971;52.398;9.774;2023-03-23T13:41:58;12.30;99.90
9865;DHT22;4971;52.398;9.774;2023-03-23T13:44:25;12.20;1.00
9865;DHT22;4971;52.398;9.774;2023-03-23T13:47:28;12.10;1.00
9865;DHT22;4971;52.398;9.774;2023-03-23T13:50:12;12.10;1.00
9865;DHT22;4971;52.398;9.774;2023-03-23T14:03:19;12.10;1.00
9865;DHT22;4971;52.398;9.774;2023-03-23T14:08:38;12.40;99.90
9865;DHT22;4971;52.398;9.774;2023-03-23T14:14:03;12.50;86.70
9865;DHT22;4971;52.398;9.774;2023-03-23T14:16:35;12.50;99.90
9865;DHT22;4971;52.398;9.774;2023-03-23T14:19:04;12.50;12.00
9865;DHT22;4971;52.398;9.774;2023-03-23T14:21:40;12.50;99.90
9865;DHT22;4971;52.398;9.774;2023-03-23T14:29:03;12.60;99.90
9865;DHT22;4971;52.398;9.774;2023-03-23T14:31:30;12.80;1.00
9865;DHT22;4971;52.398;9.774;2023-03-23T14:33:56;12.70;1.00
9865;DHT22;4971;52.398;9.774;2023-03-23T14:36:28;12.60;1.00
9865;DHT22;4971;52.398;9.774;2023-03-23T14:39:23;12.60;1.00
9865;DHT22;4971;52.398;9.774;2023-03-23T14:41:51;12.90;99.90
9865;DHT22;4971;52.398;9.774;2023-03-23T14:44:31;13.00;99.90
9865;DHT22;4971;52.398;9.774;2023-03-23T14:47:04;12.70;1.00
9865;DHT22;4971;52.398;9.774;2023-03-23T14:49:34;12.80;99.90
9865;DHT22;4971;52.398;9.774;2023-03-23T14:52:10;12.80;99.90
9865;DHT22;4971;52.398;9.774;2023-03-23T14:54:37;12.90;1.00
9865;DHT22;4971;52.398;9.774;2023-03-23T14:59:51;12.90;1.00
9865;DHT22;4971;52.398;9.774;2023-03-23T15:02:25;12.90;99.90
9865;DHT22;4971;52.398;9.774;2023-03-23T15:04:59;13.00;99.90
9865;DHT22;4971;52.398;9.774;2023-03-23T15:07:31;13.00;1.00
9865;DHT22;4971;52.398;9.774;2023-03-23T15:09:58;12.90;99.90
9865;DHT22;4971;52.398;9.774;2023-03-23T15:12:26;13.10;71.10
9865;DHT22;4971;52.398;9.774;2023-03-23T15:15:05;13.00;1.00
9865;DHT22;4971;52.398;9.774;2023-03-23T15:17:35;13.00;1.00
9865;DHT22;4971;52.398;9.774;2023-03-23T15:20:17;12.80;99.90
9865;DHT22;4971;52.398;9.774;2023-03-23T15:22:46;12.90;99.90
9865;DHT22;4971;52.398;9.774;2023-03-23T15:25:30;12.90;99.90
9865;DHT22;4971;52.398;9.774;2023-03-23T15:28:22;12.90;1.00
9865;DHT22;4971;52.398;9.774;2023-03-23T15:30:55;12.70;1.00
9865;DHT22;4971;52.398;9.774;2023-03-23T15:33:23;13.00;99.90
9865;DHT22;4971;52.398;9.774;2023-03-23T15:35:54;12.90;99.90
9865;DHT22;4971;52.398;9.774;2023-03-23T15:38:30;12.90;99.90
9865;DHT22;4971;52.398;9.774;2023-03-23T15:40:59;12.90;99.90
9865;DHT22;4971;52.398;9.774;2023-03-23T15:43:27;12.60;99.90
9865;DHT22;4971;52.398;9.774;2023-03-23T15:48:48;12.80;1.00
9865;DHT22;4971;52.398;9.774;2023-03-23T15:51:19;12.80;99.90
9865;DHT22;4971;52.398;9.774;2023-03-23T15:53:45;12.80;99.90
9865;DHT22;4971;52.398;9.774;2023-03-23T15:56:12;12.90;99.90
9865;DHT22;4971;52.398;9.774;2023-03-23T15:58:39;13.00;99.90
9865;DHT22;4971;52.398;9.774;2023-03-23T16:06:21;12.90;99.90
9865;DHT22;4971;52.398;9.774;2023-03-23T16:08:50;13.30;99.90
9865;DHT22;4971;52.398;9.774;2023-03-23T16:11:17;13.00;1.00
9865;DHT22;4971;52.398;9.774;2023-03-23T16:13:44;12.90;1.00
9865;DHT22;4971;52.398;9.774;2023-03-23T16:16:17;13.00;1.00
9865;DHT22;4971;52.398;9.774;2023-03-23T16:18:42;13.00;99.90
9865;DHT22;4971;52.398;9.774;2023-03-23T16:21:09;12.80;1.00
9865;DHT22;4971;52.398;9.774;2023-03-23T16:26:00;12.80;99.90
9865;DHT22;4971;52.398;9.774;2023-03-23T16:28:26;12.50;1.00
9865;DHT22;4971;52.398;9.774;2023-03-23T16:33:18;12.60;1.00
9865;DHT22;4971;52.398;9.774;2023-03-23T16:35:44;12.70;99.90
9865;DHT22;4971;52.398;9.774;2023-03-23T16:38:12;12.60;1.00
9865;DHT22;4971;52.398;9.774;2023-03-23T16:40:39;12.50;1.00
9865;DHT22;4971;52.398;9.774;2023-03-23T16:43:05;12.80;99.90
9865;DHT22;4971;52.398;9.774;2023-03-23T16:45:31;12.60;99.90
9865;DHT22;4971;52.398;9.774;2023-03-23T16:50:27;12.40;99.90
9865;DHT22;4971;52.398;9.774;2023-03-23T16:52:53;12.50;1.00
9865;DHT22;4971;52.398;9.774;2023-03-23T16:55:19;12.40;1.00
9865;DHT22;4971;52.398;9.774;2023-03-23T16:57:46;12.40;1.00
9865;DHT22;4971;52.398;9.774;2023-03-23T17:00:14;12.50;99.90
9865;DHT22;4971;52.398;9.774;2023-03-23T17:02:43;12.40;9.80
9865;DHT22;4971;52.398;9.774;2023-03-23T17:05:09;12.40;80.40
9865;DHT22;4971;52.398;9.774;2023-03-23T17:07:37;12.30;1.00
9865;DHT22;4971;52.398;9.774;2023-03-23T17:10:03;12.10;99.90
9865;DHT22;4971;52.398;9.774;2023-03-23T17:17:23;12.20;99.90
9865;DHT22;4971;52.398;9.774;2023-03-23T17:19:48;12.10;1.00
9865;DHT22;4971;52.398;9.774;2023-03-23T17:22:14;12.10;99.90
9865;DHT22;4971;52.398;9.774;2023-03-23T17:24:40;11.90;99.90
9865;DHT22;4971;52.398;9.774;2023-03-23T17:58:48;12.20;99.90
9865;DHT22;4971;52.398;9.774;2023-03-23T18:06:07;12.20;1.00
9865;DHT22;4971;52.398;9.774;2023-03-23T18:08:33;12.30;99.90
9865;DHT22;4971;52.398;9.774;2023-03-23T18:11:00;12.20;99.90
9865;DHT22;4971;52.398;9.774;2023-03-23T18:13:27;11.90;1.00
9865;DHT22;4971;52.398;9.774;2023-03-23T18:15:54;12.20;1.00
9865;DHT22;4971;52.398;9.774;2023-03-23T18:18:21;11.90;99.90
9865;DHT22;4971;52.398;9.774;2023-03-23T18:23:13;11.90;1.00
9865;DHT22;4971;52.398;9.774;2023-03-23T18:25:39;11.70;1.00
9865;DHT22;4971;52.398;9.774;2023-03-23T18:30:32;11.90;1.00
9865;DHT22;4971;52.398;9.774;2023-03-23T18:33:01;11.60;99.90
9865;DHT22;4971;52.398;9.774;2023-03-23T18:37:54;11.80;99.90
9865;DHT22;4971;52.398;9.774;2023-03-23T18:42:45;11.40;1.00
9865;DHT22;4971;52.398;9.774;2023-03-23T18:45:12;11.60;99.90
9865;DHT22;4971;52.398;9.774;2023-03-23T18:47:40;11.00;1.00
9865;DHT22;4971;52.398;9.774;2023-03-23T18:50:07;11.40;1.00
9865;DHT22;4971;52.398;9.774;2023-03-23T18:57:26;11.50;1.00
9865;DHT22;4971;52.398;9.774;2023-03-23T19:02:18;12.10;1.00
9865;DHT22;4971;52.398;9.774;2023-03-23T19:04:46;11.50;1.00
9865;DHT22;4971;52.398;9.774;2023-03-23T19:07:15;11.80;1.00
9865;DHT22;4971;52.398;9.774;2023-03-23T19:09:42;12.10;1.00
9865;DHT22;4971;52.398;9.774;2023-03-23T19:12:09;11.30;1.00
9865;DHT22;4971;52.398;9.774;2023-03-23T19:14:36;11.70;1.00
9865;DHT22;4971;52.398;9.774;2023-03-23T19:17:04;11.40;1.00
9865;DHT22;4971;52.398;9.774;2023-03-23T19:21:56;11.80;1.00
9865;DHT22;4971;52.398;9.774;2023-03-23T19:26:50;11.60;1.00
9865;DHT22;4971;52.398;9.774;2023-03-23T19:29:17;11.40;99.90
9865;DHT22;4971;52.398;9.774;2023-03-23T19:31:44;11.50;1.00
9865;DHT22;4971;52.398;9.774;2023-03-23T19:34:09;11.50;1.00
9865;DHT22;4971;52.398;9.774;2023-03-23T19:36:36;11.60;1.00
9865;DHT22;4971;52.398;9.774;2023-03-23T19:39:05;11.70;1.00
9865;DHT22;4971;52.398;9.774;2023-03-23T19:41:31;11.80;1.00
9865;DHT22;4971;52.398;9.774;2023-03-23T19:48:50;12.40;1.00
9865;DHT22;4971;52.398;9.774;2023-03-23T19:51:18;11.80;1.00
9865;DHT22;4971;52.398;9.774;2023-03-23T19:53:45;11.90;1.00
9865;DHT22;4971;52.398;9.774;2023-03-23T19:56:19;11.90;92.00
9865;DHT22;4971;52.398;9.774;2023-03-23T19:58:46;11.90;99.90
9865;DHT22;4971;52.398;9.774;2023-03-23T20:01:13;11.80;1.00
9865;DHT22;4971;52.398;9.774;2023-03-23T20:03:39;11.80;1.00
9865;DHT22;4971;52.398;9.774;2023-03-23T20:06:09;11.90;1.00
9865;DHT22;4971;52.398;9.774;2023-03-23T20:08:39;11.80;1.00
9865;DHT22;4971;52.398;9.774;2023-03-23T20:11:07;11.80;1.00
9865;DHT22;4971;52.398;9.774;2023-03-23T20:13:37;11.80;1.00
9865;DHT22;4971;52.398;9.774;2023-03-23T20:18:29;11.40;99.90
9865;DHT22;4971;52.398;9.774;2023-03-23T20:21:03;11.50;1.00
9865;DHT22;4971;52.398;9.774;2023-03-23T20:26:04;11.50;99.90
9865;DHT22;4971;52.398;9.774;2023-03-23T20:28:31;11.40;1.00
9865;DHT22;4971;52.398;9.774;2023-03-23T20:31:12;11.20;1.00
9865;DHT22;4971;52.398;9.774;2023-03-23T20:36:06;11.40;1.00
9865;DHT22;4971;52.398;9.774;2023-03-23T20:38:36;11.50;1.00
9865;DHT22;4971;52.398;9.774;2023-03-23T20:41:04;11.40;1.00
9865;DHT22;4971;52.398;9.774;2023-03-23T20:43:32;11.70;1.00
9865;DHT22;4971;52.398;9.774;2023-03-23T20:45:59;11.50;99.90
9865;DHT22;4971;52.398;9.774;2023-03-23T20:48:26;11.20;1.00
9865;DHT22;4971;52.398;9.774;2023-03-23T20:50:53;11.60;1.00
9865;DHT22;4971;52.398;9.774;2023-03-23T20:53:20;11.40;1.00
9865;DHT22;4971;52.398;9.774;2023-03-23T20:55:49;11.70;1.00
9865;DHT22;4971;52.398;9.774;2023-03-23T20:58:16;11.60;88.30
9865;DHT22;4971;52.398;9.774;2023-03-23T21:00:42;11.40;1.00
9865;DHT22;4971;52.398;9.774;2023-03-23T21:03:14;11.60;1.00
9865;DHT22;4971;52.398;9.774;2023-03-23T21:05:42;11.60;1.00
9865;DHT22;4971;52.398;9.774;2023-03-23T21:08:09;11.80;1.00
9865;DHT22;4971;52.398;9.774;2023-03-23T21:10:38;11.40;99.90
9865;DHT22;4971;52.398;9.774;2023-03-23T21:13:04;11.60;99.90
9865;DHT22;4971;52.398;9.774;2023-03-23T21:15:32;11.50;99.90
9865;DHT22;4971;52.398;9.774;2023-03-23T21:17:58;11.40;99.90
9865;DHT22;4971;52.398;9.774;2023-03-23T21:20:24;12.00;1.00
9865;DHT22;4971;52.398;9.774;2023-03-23T21:25:16;11.70;1.00
9865;DHT22;4971;52.398;9.774;2023-03-23T21:30:08;11.50;1.00
9865;DHT22;4971;52.398;9.774;2023-03-23T21:37:28;11.70;1.00
9865;DHT22;4971;52.398;9.774;2023-03-23T21:39:54;11.70;1.00
9865;DHT22;4971;52.398;9.774;2023-03-23T21:47:30;11.70;99.90
9865;DHT22;4971;52.398;9.774;2023-03-23T21:49:56;11.50;99.90
9865;DHT22;4971;52.398;9.774;2023-03-23T21:52:24;11.70;1.00
9865;DHT22;4971;52.398;9.774;2023-03-23T21:54:49;11.80;1.00
9865;DHT22;4971;52.398;9.774;2023-03-23T22:02:11;11.60;1.00
9865;DHT22;4971;52.398;9.774;2023-03-23T22:07:03;11.40;1.00
9865;DHT22;4971;52.398;9.774;2023-03-23T22:19:14;11.50;1.00
9865;DHT22;4971;52.398;9.774;2023-03-23T22:21:40;11.60;2.40
9865;DHT22;4971;52.398;9.774;2023-03-23T22:28:59;11.60;99.90
9865;DHT22;4971;52.398;9.774;2023-03-23T22:31:28;11.70;99.90
9865;DHT22;4971;52.398;9.774;2023-03-23T22:33:55;11.70;99.90
9865;DHT22;4971;52.398;9.774;2023-03-23T22:36:23;12.20;1.00
9865;DHT22;4971;52.398;9.774;2023-03-23T22:38:50;11.60;34.70
9865;DHT22;4971;52.398;9.774;2023-03-23T22:41:27;11.80;1.00
9865;DHT22;4971;52.398;9.774;2023-03-23T22:48:45;11.70;1.00
9865;DHT22;4971;52.398;9.774;2023-03-23T22:51:13;11.80;1.00
9865;DHT22;4971;52.398;9.774;2023-03-23T22:56:06;11.80;99.90
9865;DHT22;4971;52.398;9.774;2023-03-23T22:58:32;11.80;1.00
9865;DHT22;4971;52.398;9.774;2023-03-23T23:01:02;11.50;1.00
9865;DHT22;4971;52.398;9.774;2023-03-23T23:03:29;11.50;99.90
9865;DHT22;4971;52.398;9.774;2023-03-23T23:05:56;11.90;1.00
9865;DHT22;4971;52.398;9.774;2023-03-23T23:08:22;12.00;99.90
9865;DHT22;4971;52.398;9.774;2023-03-23T23:10:50;11.80;99.90
9865;DHT22;4971;52.398;9.774;2023-03-23T23:13:16;12.00;99.90